sensor_id;sensor_type;location;lat;lon;timestamp;temperature;humidity
8858;DHT22;4465;50.904;4.696;2023-04-03T00:01:34;2.00;99.90
8858;DHT22;4465;50.904;4.696;2023-04-03T00:04:00;2.10;99.90
8858;DHT22;4465;50.904;4.696;2023-04-03T00:06:28;1.90;99.90
8858;DHT22;4465;50.904;4.696;2023-04-03T00:08:54;1.90;99.90
8858;DHT22;4465;50.904;4.696;2023-04-03T00:11:22;1.90;99.90
8858;DHT22;4465;50.904;4.696;2023-04-03T00:13:51;1.80;99.90
8858;DHT22;4465;50.904;4.696;2023-04-03T00:16:19;1.80;99.90
8858;DHT22;4465;50.904;4.696;2023-04-03T00:18:47;1.80;99.90
8858;DHT22;4465;50.904;4.696;2023-04-03T00:21:16;1.80;99.90
8858;DHT22;4465;50.904;4.696;2023-04-03T00:23:42;1.80;99.90
8858;DHT22;4465;50.904;4.696;2023-04-03T00:26:07;1.80;99.90
8858;DHT22;4465;50.904;4.696;2023-04-03T00:28:38;1.80;99.90
8858;DHT22;4465;50.904;4.696;2023-04-03T00:31:04;1.80;99.90
8858;DHT22;4465;50.904;4.696;2023-04-03T00:33:30;1.70;99.90
8858;DHT22;4465;50.904;4.696;2023-04-03T00:35:56;1.70;99.90
8858;DHT22;4465;50.904;4.696;2023-04-03T00:38:21;1.60;99.90
8858;DHT22;4465;50.904;4.696;2023-04-03T00:40:47;1.60;99.90
8858;DHT22;4465;50.904;4.696;2023-04-03T00:43:21;1.60;99.90
8858;DHT22;4465;50.904;4.696;2023-04-03T00:45:48;1.60;99.90
8858;DHT22;4465;50.904;4.696;2023-04-03T00:48:18;1.60;99.90
8858;DHT22;4465;50.904;4.696;2023-04-03T00:50:45;1.50;99.90
8858;DHT22;4465;50.904;4.696;2023-04-03T00:53:16;1.50;99.90
8858;DHT22;4465;50.904;4.696;2023-04-03T00:55:42;1.50;99.90
8858;DHT22;4465;50.904;4.696;2023-04-03T00:58:10;1.50;99.90
8858;DHT22;4465;50.904;4.696;2023-04-03T01:00:37;1.50;99.90
8858;DHT22;4465;50.904;4.696;2023-04-03T01:03:04;1.40;99.90
8858;DHT22;4465;50.904;4.696;2023-04-03T01:05:30;1.50;99.90
8858;DHT22;4465;50.904;4.696;2023-04-03T01:07:56;1.40;99.90
8858;DHT22;4465;50.904;4.696;2023-04-03T01:10:24;1.40;99.90
8858;DHT22;4465;50.904;4.696;2023-04-03T01:12:53;1.40;99.90
8858;DHT22;4465;50.904;4.696;2023-04-03T01:15:21;1.40;99.90
8858;DHT22;4465;50.904;4.696;2023-04-03T01:20:39;1.40;99.90
8858;DHT22;4465;50.904;4.696;2023-04-03T01:28:05;1.40;99.90
8858;DHT22;4465;50.904;4.696;2023-04-03T01:30:33;1.40;99.90
8858;DHT22;4465;50.904;4.696;2023-04-03T01:32:59;1.40;99.90
8858;DHT22;4465;50.904;4.696;2023-04-03T01:35:25;1.40;99.90
8858;DHT22;4465;50.904;4.696;2023-04-03T01:37:51;1.40;99.90
8858;DHT22;4465;50.904;4.696;2023-04-03T01:40:17;1.40;99.90
8858;DHT22;4465;50.904;4.696;2023-04-03T01:42:42;1.40;99.90
8858;DHT22;4465;50.904;4.696;2023-04-03T01:45:11;1.40;99.90
8858;DHT22;4465;50.904;4.696;2023-04-03T01:47:36;1.30;99.90
8858;DHT22;4465;50.904;4.696;2023-04-03T01:50:04;1.30;99.90
8858;DHT22;4465;50.904;4.696;2023-04-03T01:52:30;1.30;99.90
8858;DHT22;4465;50.904;4.696;2023-04-03T01:54:56;1.40;99.90
8858;DHT22;4465;50.904;4.696;2023-04-03T01:57:27;1.30;99.90
8858;DHT22;4465;50.904;4.696;2023-04-03T01:59:53;1.30;99.90
8858;DHT22;4465;50.904;4.696;2023-04-03T02:02:22;1.30;99.90
8858;DHT22;4465;50.904;4.696;2023-04-03T02:04:47;1.30;99.90
8858;DHT22;4465;50.904;4.696;2023-04-03T02:07:13;1.30;99.90
8858;DHT22;4465;50.904;4.696;2023-04-03T02:09:39;1.20;99.90
8858;DHT22;4465;50.904;4.696;2023-04-03T02:12:05;1.20;99.90
8858;DHT22;4465;50.904;4.696;2023-04-03T02:14:36;1.20;99.90
8858;DHT22;4465;50.904;4.696;2023-04-03T02:17:02;1.20;99.90
8858;DHT22;4465;50.904;4.696;2023-04-03T02:19:34;1.20;99.90
8858;DHT22;4465;50.904;4.696;2023-04-03T02:22:01;1.30;99.90
8858;DHT22;4465;50.904;4.696;2023-04-03T02:24:27;1.20;99.90
8858;DHT22;4465;50.904;4.696;2023-04-03T02:26:53;1.10;99.90
8858;DHT22;4465;50.904;4.696;2023-04-03T02:29:19;1.10;99.90
8858;DHT22;4465;50.904;4.696;2023-04-03T02:31:45;1.10;99.90
8858;DHT22;4465;50.904;4.696;2023-04-03T02:34:11;1.10;99.90
8858;DHT22;4465;50.904;4.696;2023-04-03T02:36:37;1.10;99.90
8858;DHT22;4465;50.904;4.696;2023-04-03T02:39:02;1.10;99.90
8858;DHT22;4465;50.904;4.696;2023-04-03T02:41:31;1.10;99.90
8858;DHT22;4465;50.904;4.696;2023-04-03T02:44:06;1.10;99.90
8858;DHT22;4465;50.904;4.696;2023-04-03T02:46:32;1.10;99.90
8858;DHT22;4465;50.904;4.696;2023-04-03T02:48:58;1.00;99.90
8858;DHT22;4465;50.904;4.696;2023-04-03T02:51:24;1.00;99.90
8858;DHT22;4465;50.904;4.696;2023-04-03T02:53:50;1.00;99.90
8858;DHT22;4465;50.904;4.696;2023-04-03T02:56:16;1.00;99.90
8858;DHT22;4465;50.904;4.696;2023-04-03T02:58:43;0.90;99.90
8858;DHT22;4465;50.904;4.696;2023-04-03T03:01:09;1.00;99.90
8858;DHT22;4465;50.904;4.696;2023-04-03T03:03:35;0.90;99.90
8858;DHT22;4465;50.904;4.696;2023-04-03T03:06:05;1.00;99.90
8858;DHT22;4465;50.904;4.696;2023-04-03T03:08:33;1.00;99.90
8858;DHT22;4465;50.904;4.696;2023-04-03T03:10:59;0.90;99.90
8858;DHT22;4465;50.904;4.696;2023-04-03T03:13:25;0.90;99.90
8858;DHT22;4465;50.904;4.696;2023-04-03T03:15:53;0.80;99.90
8858;DHT22;4465;50.904;4.696;2023-04-03T03:18:19;0.80;99.90
8858;DHT22;4465;50.904;4.696;2023-04-03T03:20:45;0.80;99.90
8858;DHT22;4465;50.904;4.696;2023-04-03T03:23:11;0.80;99.90
8858;DHT22;4465;50.904;4.696;2023-04-03T03:25:40;0.80;99.90
8858;DHT22;4465;50.904;4.696;2023-04-03T03:28:06;0.80;99.90
8858;DHT22;4465;50.904;4.696;2023-04-03T03:30:32;0.80;99.90
8858;DHT22;4465;50.904;4.696;2023-04-03T03:32:58;0.90;99.90
8858;DHT22;4465;50.904;4.696;2023-04-03T03:35:24;0.80;99.90
8858;DHT22;4465;50.904;4.696;2023-04-03T03:37:50;0.80;99.90
8858;DHT22;4465;50.904;4.696;2023-04-03T03:40:15;0.80;99.90
8858;DHT22;4465;50.904;4.696;2023-04-03T03:42:41;0.70;99.90
8858;DHT22;4465;50.904;4.696;2023-04-03T03:45:07;0.70;99.90
8858;DHT22;4465;50.904;4.696;2023-04-03T03:47:33;0.80;99.90
8858;DHT22;4465;50.904;4.696;2023-04-03T03:49:59;0.80;99.90
8858;DHT22;4465;50.904;4.696;2023-04-03T03:52:25;0.70;99.90
8858;DHT22;4465;50.904;4.696;2023-04-03T03:54:50;0.70;99.90
8858;DHT22;4465;50.904;4.696;2023-04-03T03:57:18;0.70;99.90
8858;DHT22;4465;50.904;4.696;2023-04-03T03:59:44;0.70;99.90
8858;DHT22;4465;50.904;4.696;2023-04-03T04:02:10;0.70;99.90
8858;DHT22;4465;50.904;4.696;2023-04-03T04:04:39;0.80;99.90
8858;DHT22;4465;50.904;4.696;2023-04-03T04:07:04;0.70;99.90
8858;DHT22;4465;50.904;4.696;2023-04-03T04:09:30;0.70;99.90
8858;DHT22;4465;50.904;4.696;2023-04-03T04:11:56;0.70;99.90
8858;DHT22;4465;50.904;4.696;2023-04-03T04:14:24;0.70;99.90
8858;DHT22;4465;50.904;4.696;2023-04-03T04:16:52;0.60;99.90
8858;DHT22;4465;50.904;4.696;2023-04-03T04:19:18;0.60;99.90
8858;DHT22;4465;50.904;4.696;2023-04-03T04:21:44;0.60;99.90
8858;DHT22;4465;50.904;4.696;2023-04-03T04:24:11;0.60;99.90
8858;DHT22;4465;50.904;4.696;2023-04-03T04:26:38;0.60;99.90
8858;DHT22;4465;50.904;4.696;2023-04-03T04:29:04;0.60;99.90
8858;DHT22;4465;50.904;4.696;2023-04-03T04:31:30;0.70;99.90
8858;DHT22;4465;50.904;4.696;2023-04-03T04:33:56;0.60;99.90
8858;DHT22;4465;50.904;4.696;2023-04-03T04:36:21;0.60;99.90
8858;DHT22;4465;50.904;4.696;2023-04-03T04:38:47;0.70;99.90
8858;DHT22;4465;50.904;4.696;2023-04-03T04:41:13;0.70;99.90
8858;DHT22;4465;50.904;4.696;2023-04-03T04:43:41;0.60;99.90
8858;DHT22;4465;50.904;4.696;2023-04-03T04:46:08;0.60;99.90
8858;DHT22;4465;50.904;4.696;2023-04-03T04:48:35;0.60;99.90
8858;DHT22;4465;50.904;4.696;2023-04-03T04:51:03;0.60;99.90
8858;DHT22;4465;50.904;4.696;2023-04-03T04:53:29;0.60;99.90
8858;DHT22;4465;50.904;4.696;2023-04-03T04:55:55;0.60;99.90
8858;DHT22;4465;50.904;4.696;2023-04-03T04:58:21;0.50;99.90
8858;DHT22;4465;50.904;4.696;2023-04-03T05:00:46;0.50;99.90
8858;DHT22;4465;50.904;4.696;2023-04-03T05:03:12;0.50;99.90
8858;DHT22;4465;50.904;4.696;2023-04-03T05:05:41;0.50;99.90
8858;DHT22;4465;50.904;4.696;2023-04-03T05:08:09;0.50;99.90
8858;DHT22;4465;50.904;4.696;2023-04-03T05:10:34;0.50;99.90
8858;DHT22;4465;50.904;4.696;2023-04-03T05:13:00;0.50;99.90
8858;DHT22;4465;50.904;4.696;2023-04-03T05:15:27;0.50;99.90
8858;DHT22;4465;50.904;4.696;2023-04-03T05:17:53;0.50;99.90
8858;DHT22;4465;50.904;4.696;2023-04-03T05:20:21;0.50;99.90
8858;DHT22;4465;50.904;4.696;2023-04-03T05:22:47;0.50;99.90
8858;DHT22;4465;50.904;4.696;2023-04-03T05:25:13;0.50;99.90
8858;DHT22;4465;50.904;4.696;2023-04-03T05:27:39;0.50;99.90
8858;DHT22;4465;50.904;4.696;2023-04-03T05:30:05;0.50;99.90
8858;DHT22;4465;50.904;4.696;2023-04-03T05:32:31;0.50;99.90
8858;DHT22;4465;50.904;4.696;2023-04-03T05:34:59;0.70;99.90
8858;DHT22;4465;50.904;4.696;2023-04-03T05:37:24;0.60;99.90
8858;DHT22;4465;50.904;4.696;2023-04-03T05:39:50;0.50;99.90
8858;DHT22;4465;50.904;4.696;2023-04-03T05:42:16;0.60;99.90
8858;DHT22;4465;50.904;4.696;2023-04-03T05:44:42;0.60;99.90
8858;DHT22;4465;50.904;4.696;2023-04-03T05:47:08;0.60;99.90
8858;DHT22;4465;50.904;4.696;2023-04-03T05:49:34;0.60;99.90
8858;DHT22;4465;50.904;4.696;2023-04-03T05:52:00;0.60;99.90
8858;DHT22;4465;50.904;4.696;2023-04-03T05:54:27;0.60;99.90
8858;DHT22;4465;50.904;4.696;2023-04-03T05:56:53;0.60;99.90
8858;DHT22;4465;50.904;4.696;2023-04-03T05:59:19;0.70;99.90
8858;DHT22;4465;50.904;4.696;2023-04-03T06:01:45;0.70;99.90
8858;DHT22;4465;50.904;4.696;2023-04-03T06:04:11;0.70;99.90
8858;DHT22;4465;50.904;4.696;2023-04-03T06:06:46;0.70;99.90
8858;DHT22;4465;50.904;4.696;2023-04-03T06:09:13;0.70;99.90
8858;DHT22;4465;50.904;4.696;2023-04-03T06:11:39;0.80;99.90
8858;DHT22;4465;50.904;4.696;2023-04-03T06:14:06;1.00;99.90
8858;DHT22;4465;50.904;4.696;2023-04-03T06:16:34;0.80;99.90
8858;DHT22;4465;50.904;4.696;2023-04-03T06:19:00;0.90;99.90
8858;DHT22;4465;50.904;4.696;2023-04-03T06:21:26;0.90;99.90
8858;DHT22;4465;50.904;4.696;2023-04-03T06:23:52;1.00;99.90
8858;DHT22;4465;50.904;4.696;2023-04-03T06:26:17;1.00;99.90
8858;DHT22;4465;50.904;4.696;2023-04-03T06:28:43;1.00;99.90
8858;DHT22;4465;50.904;4.696;2023-04-03T06:31:09;1.10;99.90
8858;DHT22;4465;50.904;4.696;2023-04-03T06:33:39;1.20;99.90
8858;DHT22;4465;50.904;4.696;2023-04-03T06:36:05;1.20;99.90
8858;DHT22;4465;50.904;4.696;2023-04-03T06:38:32;1.30;99.90
8858;DHT22;4465;50.904;4.696;2023-04-03T06:40:58;1.40;99.90
8858;DHT22;4465;50.904;4.696;2023-04-03T06:43:27;1.50;99.90
8858;DHT22;4465;50.904;4.696;2023-04-03T06:45:58;1.50;99.90
8858;DHT22;4465;50.904;4.696;2023-04-03T06:48:24;1.60;99.90
8858;DHT22;4465;50.904;4.696;2023-04-03T06:50:50;1.60;99.90
8858;DHT22;4465;50.904;4.696;2023-04-03T06:53:16;1.70;99.90
8858;DHT22;4465;50.904;4.696;2023-04-03T06:55:44;1.80;99.90
8858;DHT22;4465;50.904;4.696;2023-04-03T06:58:10;1.90;99.90
8858;DHT22;4465;50.904;4.696;2023-04-03T07:00:36;2.00;99.90
8858;DHT22;4465;50.904;4.696;2023-04-03T07:03:04;2.10;99.90
8858;DHT22;4465;50.904;4.696;2023-04-03T07:05:30;2.10;99.90
8858;DHT22;4465;50.904;4.696;2023-04-03T07:07:56;2.20;99.90
8858;DHT22;4465;50.904;4.696;2023-04-03T07:10:26;2.40;99.90
8858;DHT22;4465;50.904;4.696;2023-04-03T07:12:55;2.40;99.90
8858;DHT22;4465;50.904;4.696;2023-04-03T07:15:20;2.60;99.90
8858;DHT22;4465;50.904;4.696;2023-04-03T07:17:50;2.60;99.90
8858;DHT22;4465;50.904;4.696;2023-04-03T07:20:16;2.80;99.90
8858;DHT22;4465;50.904;4.696;2023-04-03T07:22:41;2.70;99.90
8858;DHT22;4465;50.904;4.696;2023-04-03T07:25:07;2.80;99.90
8858;DHT22;4465;50.904;4.696;2023-04-03T07:27:33;3.00;99.90
8858;DHT22;4465;50.904;4.696;2023-04-03T07:29:59;3.10;99.90
8858;DHT22;4465;50.904;4.696;2023-04-03T07:32:28;3.30;99.90
8858;DHT22;4465;50.904;4.696;2023-04-03T07:34:55;3.60;99.90
8858;DHT22;4465;50.904;4.696;2023-04-03T07:37:20;3.90;99.90
8858;DHT22;4465;50.904;4.696;2023-04-03T07:39:48;4.20;99.90
8858;DHT22;4465;50.904;4.696;2023-04-03T07:42:14;4.60;99.90
8858;DHT22;4465;50.904;4.696;2023-04-03T07:44:40;4.70;99.90
8858;DHT22;4465;50.904;4.696;2023-04-03T07:47:06;5.00;99.90
8858;DHT22;4465;50.904;4.696;2023-04-03T07:49:32;5.20;99.90
8858;DHT22;4465;50.904;4.696;2023-04-03T07:51:58;5.50;99.90
8858;DHT22;4465;50.904;4.696;2023-04-03T07:54:24;5.70;99.90
8858;DHT22;4465;50.904;4.696;2023-04-03T07:56:50;6.00;99.90
8858;DHT22;4465;50.904;4.696;2023-04-03T07:59:15;6.20;99.90
8858;DHT22;4465;50.904;4.696;2023-04-03T08:01:43;6.60;99.90
8858;DHT22;4465;50.904;4.696;2023-04-03T08:04:09;6.70;99.90
8858;DHT22;4465;50.904;4.696;2023-04-03T08:06:37;6.90;99.90
8858;DHT22;4465;50.904;4.696;2023-04-03T08:09:03;7.00;99.90
8858;DHT22;4465;50.904;4.696;2023-04-03T08:11:29;7.30;99.90
8858;DHT22;4465;50.904;4.696;2023-04-03T08:13:56;7.40;99.90
8858;DHT22;4465;50.904;4.696;2023-04-03T08:16:23;7.50;99.90
8858;DHT22;4465;50.904;4.696;2023-04-03T08:18:52;7.60;99.90
8858;DHT22;4465;50.904;4.696;2023-04-03T08:21:18;7.70;99.90
8858;DHT22;4465;50.904;4.696;2023-04-03T08:23:47;7.90;99.90
8858;DHT22;4465;50.904;4.696;2023-04-03T08:26:15;8.10;99.90
8858;DHT22;4465;50.904;4.696;2023-04-03T08:28:41;8.30;99.90
8858;DHT22;4465;50.904;4.696;2023-04-03T08:31:11;8.40;99.90
8858;DHT22;4465;50.904;4.696;2023-04-03T08:33:38;8.60;99.90
8858;DHT22;4465;50.904;4.696;2023-04-03T08:36:07;8.80;99.90
8858;DHT22;4465;50.904;4.696;2023-04-03T08:38:33;9.00;99.90
8858;DHT22;4465;50.904;4.696;2023-04-03T08:41:04;9.20;99.90
8858;DHT22;4465;50.904;4.696;2023-04-03T08:43:44;9.30;99.90
8858;DHT22;4465;50.904;4.696;2023-04-03T08:46:15;9.50;99.90
8858;DHT22;4465;50.904;4.696;2023-04-03T08:48:43;9.60;99.90
8858;DHT22;4465;50.904;4.696;2023-04-03T08:51:17;9.70;99.90
8858;DHT22;4465;50.904;4.696;2023-04-03T08:54:05;9.70;99.90
8858;DHT22;4465;50.904;4.696;2023-04-03T08:56:33;9.70;99.90
8858;DHT22;4465;50.904;4.696;2023-04-03T08:59:00;9.60;99.90
8858;DHT22;4465;50.904;4.696;2023-04-03T09:01:30;9.60;99.90
8858;DHT22;4465;50.904;4.696;2023-04-03T09:04:00;9.70;99.90
8858;DHT22;4465;50.904;4.696;2023-04-03T09:06:26;9.80;99.90
8858;DHT22;4465;50.904;4.696;2023-04-03T09:09:39;9.90;99.90
8858;DHT22;4465;50.904;4.696;2023-04-03T09:24:38;10.60;99.90
8858;DHT22;4465;50.904;4.696;2023-04-03T09:27:05;10.80;99.90
8858;DHT22;4465;50.904;4.696;2023-04-03T09:29:34;10.80;99.90
8858;DHT22;4465;50.904;4.696;2023-04-03T09:32:01;10.90;99.90
8858;DHT22;4465;50.904;4.696;2023-04-03T09:36:54;10.90;99.90
8858;DHT22;4465;50.904;4.696;2023-04-03T09:39:27;11.00;99.90
8858;DHT22;4465;50.904;4.696;2023-04-03T09:42:03;11.30;99.90
8858;DHT22;4465;50.904;4.696;2023-04-03T09:47:46;11.70;99.90
8858;DHT22;4465;50.904;4.696;2023-04-03T09:49:46;11.90;99.90
8858;DHT22;4465;50.904;4.696;2023-04-03T09:52:25;12.20;99.90
8858;DHT22;4465;50.904;4.696;2023-04-03T09:54:51;12.40;99.90
8858;DHT22;4465;50.904;4.696;2023-04-03T09:57:17;12.50;99.90
8858;DHT22;4465;50.904;4.696;2023-04-03T10:04:51;12.40;99.90
8858;DHT22;4465;50.904;4.696;2023-04-03T10:07:37;12.50;99.90
8858;DHT22;4465;50.904;4.696;2023-04-03T10:10:24;12.70;99.90
8858;DHT22;4465;50.904;4.696;2023-04-03T10:15:55;13.00;99.90
8858;DHT22;4465;50.904;4.696;2023-04-03T10:20:49;13.40;99.90
8858;DHT22;4465;50.904;4.696;2023-04-03T10:23:27;13.50;99.90
8858;DHT22;4465;50.904;4.696;2023-04-03T10:39:04;13.40;99.90
8858;DHT22;4465;50.904;4.696;2023-04-03T10:44:28;13.60;99.90
8858;DHT22;4465;50.904;4.696;2023-04-03T10:54:40;13.90;99.90
8858;DHT22;4465;50.904;4.696;2023-04-03T10:57:08;13.90;99.90
8858;DHT22;4465;50.904;4.696;2023-04-03T11:02:17;14.20;99.90
8858;DHT22;4465;50.904;4.696;2023-04-03T11:04:46;14.40;99.90
8858;DHT22;4465;50.904;4.696;2023-04-03T11:09:43;15.00;99.90
8858;DHT22;4465;50.904;4.696;2023-04-03T11:12:12;15.30;99.90
8858;DHT22;4465;50.904;4.696;2023-04-03T11:14:38;15.50;99.90
8858;DHT22;4465;50.904;4.696;2023-04-03T11:17:08;15.50;99.90
8858;DHT22;4465;50.904;4.696;2023-04-03T11:19:46;15.50;99.90
8858;DHT22;4465;50.904;4.696;2023-04-03T11:22:25;15.40;99.90
8858;DHT22;4465;50.904;4.696;2023-04-03T11:25:06;15.40;99.90
8858;DHT22;4465;50.904;4.696;2023-04-03T11:35:18;15.30;99.90
8858;DHT22;4465;50.904;4.696;2023-04-03T11:37:45;15.20;99.90
8858;DHT22;4465;50.904;4.696;2023-04-03T11:42:42;15.20;99.90
8858;DHT22;4465;50.904;4.696;2023-04-03T11:47:49;14.90;99.90
8858;DHT22;4465;50.904;4.696;2023-04-03T11:50:32;14.80;99.90
8858;DHT22;4465;50.904;4.696;2023-04-03T11:58:26;14.40;99.90
8858;DHT22;4465;50.904;4.696;2023-04-03T12:01:06;14.10;99.90
8858;DHT22;4465;50.904;4.696;2023-04-03T12:03:33;13.90;99.90
8858;DHT22;4465;50.904;4.696;2023-04-03T12:21:20;14.30;99.90
8858;DHT22;4465;50.904;4.696;2023-04-03T12:31:49;14.40;99.90
8858;DHT22;4465;50.904;4.696;2023-04-03T12:40:14;14.30;99.90
8858;DHT22;4465;50.904;4.696;2023-04-03T12:45:27;13.90;99.90
8858;DHT22;4465;50.904;4.696;2023-04-03T12:47:54;13.90;99.90
8858;DHT22;4465;50.904;4.696;2023-04-03T12:50:24;13.70;99.90
8858;DHT22;4465;50.904;4.696;2023-04-03T12:53:16;13.70;99.90
8858;DHT22;4465;50.904;4.696;2023-04-03T12:55:40;13.60;99.90
8858;DHT22;4465;50.904;4.696;2023-04-03T12:58:23;13.60;99.90
8858;DHT22;4465;50.904;4.696;2023-04-03T13:01:00;13.50;99.90
8858;DHT22;4465;50.904;4.696;2023-04-03T13:03:26;13.40;99.90
8858;DHT22;4465;50.904;4.696;2023-04-03T13:05:54;13.40;99.90
8858;DHT22;4465;50.904;4.696;2023-04-03T13:08:22;13.40;99.90
8858;DHT22;4465;50.904;4.696;2023-04-03T13:10:58;13.50;99.90
8858;DHT22;4465;50.904;4.696;2023-04-03T13:13:24;13.50;99.90
8858;DHT22;4465;50.904;4.696;2023-04-03T13:15:52;13.60;99.90
8858;DHT22;4465;50.904;4.696;2023-04-03T13:20:50;13.90;99.90
8858;DHT22;4465;50.904;4.696;2023-04-03T13:23:16;14.00;99.90
8858;DHT22;4465;50.904;4.696;2023-04-03T13:25:43;14.00;99.90
8858;DHT22;4465;50.904;4.696;2023-04-03T13:28:11;14.00;99.90
8858;DHT22;4465;50.904;4.696;2023-04-03T13:30:38;14.00;99.90
8858;DHT22;4465;50.904;4.696;2023-04-03T13:33:27;14.00;99.90
8858;DHT22;4465;50.904;4.696;2023-04-03T13:35:55;13.80;99.90
8858;DHT22;4465;50.904;4.696;2023-04-03T13:38:22;13.70;99.90
8858;DHT22;4465;50.904;4.696;2023-04-03T13:40:58;13.70;99.90
8858;DHT22;4465;50.904;4.696;2023-04-03T13:43:27;13.80;99.90
8858;DHT22;4465;50.904;4.696;2023-04-03T13:48:22;13.90;99.90
8858;DHT22;4465;50.904;4.696;2023-04-03T13:53:22;13.80;99.90
8858;DHT22;4465;50.904;4.696;2023-04-03T13:55:56;13.70;99.90
8858;DHT22;4465;50.904;4.696;2023-04-03T13:58:27;13.70;99.90
8858;DHT22;4465;50.904;4.696;2023-04-03T14:03:32;13.50;99.90
8858;DHT22;4465;50.904;4.696;2023-04-03T14:06:04;13.30;99.90
8858;DHT22;4465;50.904;4.696;2023-04-03T14:08:30;13.10;99.90
8858;DHT22;4465;50.904;4.696;2023-04-03T14:10:56;12.80;99.90
8858;DHT22;4465;50.904;4.696;2023-04-03T14:13:22;12.60;99.90
8858;DHT22;4465;50.904;4.696;2023-04-03T14:15:48;12.50;99.90
8858;DHT22;4465;50.904;4.696;2023-04-03T14:18:17;12.30;99.90
8858;DHT22;4465;50.904;4.696;2023-04-03T14:20:44;12.10;99.90
8858;DHT22;4465;50.904;4.696;2023-04-03T14:23:12;11.90;99.90
8858;DHT22;4465;50.904;4.696;2023-04-03T14:25:39;11.70;99.90
8858;DHT22;4465;50.904;4.696;2023-04-03T14:28:38;11.50;99.90
8858;DHT22;4465;50.904;4.696;2023-04-03T14:30:57;11.30;99.90
8858;DHT22;4465;50.904;4.696;2023-04-03T14:33:23;11.20;99.90
8858;DHT22;4465;50.904;4.696;2023-04-03T14:35:51;11.10;99.90
8858;DHT22;4465;50.904;4.696;2023-04-03T14:38:22;11.00;99.90
8858;DHT22;4465;50.904;4.696;2023-04-03T14:40:49;10.90;99.90
8858;DHT22;4465;50.904;4.696;2023-04-03T14:43:15;10.80;99.90
8858;DHT22;4465;50.904;4.696;2023-04-03T14:45:41;10.70;99.90
8858;DHT22;4465;50.904;4.696;2023-04-03T14:48:10;10.70;99.90
8858;DHT22;4465;50.904;4.696;2023-04-03T14:50:38;10.60;99.90
8858;DHT22;4465;50.904;4.696;2023-04-03T14:53:06;10.60;99.90
8858;DHT22;4465;50.904;4.696;2023-04-03T14:55:33;10.60;99.90
8858;DHT22;4465;50.904;4.696;2023-04-03T14:57:59;10.50;99.90
8858;DHT22;4465;50.904;4.696;2023-04-03T15:00:25;10.50;99.90
8858;DHT22;4465;50.904;4.696;2023-04-03T15:02:53;10.50;99.90
8858;DHT22;4465;50.904;4.696;2023-04-03T15:05:19;10.40;99.90
8858;DHT22;4465;50.904;4.696;2023-04-03T15:07:49;10.40;99.90
8858;DHT22;4465;50.904;4.696;2023-04-03T15:10:26;10.30;99.90
8858;DHT22;4465;50.904;4.696;2023-04-03T15:12:52;10.30;99.90
8858;DHT22;4465;50.904;4.696;2023-04-03T15:15:19;10.30;99.90
8858;DHT22;4465;50.904;4.696;2023-04-03T15:17:50;10.20;99.90
8858;DHT22;4465;50.904;4.696;2023-04-03T15:20:20;10.20;99.90
8858;DHT22;4465;50.904;4.696;2023-04-03T15:22:46;10.10;99.90
8858;DHT22;4465;50.904;4.696;2023-04-03T15:25:14;10.10;99.90
8858;DHT22;4465;50.904;4.696;2023-04-03T15:27:40;10.10;99.90
8858;DHT22;4465;50.904;4.696;2023-04-03T15:30:11;10.10;99.90
8858;DHT22;4465;50.904;4.696;2023-04-03T15:32:40;10.00;99.90
8858;DHT22;4465;50.904;4.696;2023-04-03T15:35:06;10.00;99.90
8858;DHT22;4465;50.904;4.696;2023-04-03T15:37:34;10.00;99.90
8858;DHT22;4465;50.904;4.696;2023-04-03T15:40:00;9.90;99.90
8858;DHT22;4465;50.904;4.696;2023-04-03T15:42:26;9.90;99.90
8858;DHT22;4465;50.904;4.696;2023-04-03T15:44:54;9.90;99.90
8858;DHT22;4465;50.904;4.696;2023-04-03T15:47:20;9.90;99.90
8858;DHT22;4465;50.904;4.696;2023-04-03T15:49:46;9.80;99.90
8858;DHT22;4465;50.904;4.696;2023-04-03T15:52:12;9.70;99.90
8858;DHT22;4465;50.904;4.696;2023-04-03T15:54:40;9.70;99.90
8858;DHT22;4465;50.904;4.696;2023-04-03T15:57:06;9.60;99.90
8858;DHT22;4465;50.904;4.696;2023-04-03T15:59:32;9.60;99.90
8858;DHT22;4465;50.904;4.696;2023-04-03T16:02:03;9.60;99.90
8858;DHT22;4465;50.904;4.696;2023-04-03T16:04:30;9.60;99.90
8858;DHT22;4465;50.904;4.696;2023-04-03T16:06:55;9.60;99.90
8858;DHT22;4465;50.904;4.696;2023-04-03T16:09:21;9.50;99.90
8858;DHT22;4465;50.904;4.696;2023-04-03T16:11:47;9.50;99.90
8858;DHT22;4465;50.904;4.696;2023-04-03T16:14:13;9.50;99.90
8858;DHT22;4465;50.904;4.696;2023-04-03T16:16:39;9.50;99.90
8858;DHT22;4465;50.904;4.696;2023-04-03T16:19:04;9.40;99.90
8858;DHT22;4465;50.904;4.696;2023-04-03T16:21:31;9.40;99.90
8858;DHT22;4465;50.904;4.696;2023-04-03T16:24:00;9.40;99.90
8858;DHT22;4465;50.904;4.696;2023-04-03T16:26:26;9.40;99.90
8858;DHT22;4465;50.904;4.696;2023-04-03T16:28:52;9.40;99.90
8858;DHT22;4465;50.904;4.696;2023-04-03T16:31:18;9.40;99.90
8858;DHT22;4465;50.904;4.696;2023-04-03T16:33:44;9.40;99.90
8858;DHT22;4465;50.904;4.696;2023-04-03T16:36:10;9.40;99.90
8858;DHT22;4465;50.904;4.696;2023-04-03T16:38:36;9.40;99.90
8858;DHT22;4465;50.904;4.696;2023-04-03T16:41:02;9.40;99.90
8858;DHT22;4465;50.904;4.696;2023-04-03T16:43:33;9.40;99.90
8858;DHT22;4465;50.904;4.696;2023-04-03T16:46:01;9.40;99.90
8858;DHT22;4465;50.904;4.696;2023-04-03T16:48:28;9.40;99.90
8858;DHT22;4465;50.904;4.696;2023-04-03T16:50:53;9.30;99.90
8858;DHT22;4465;50.904;4.696;2023-04-03T16:53:22;9.30;99.90
8858;DHT22;4465;50.904;4.696;2023-04-03T16:55:49;9.30;99.90
8858;DHT22;4465;50.904;4.696;2023-04-03T16:58:15;9.20;99.90
8858;DHT22;4465;50.904;4.696;2023-04-03T17:00:41;9.10;99.90
8858;DHT22;4465;50.904;4.696;2023-04-03T17:03:07;9.10;99.90
8858;DHT22;4465;50.904;4.696;2023-04-03T17:05:33;9.10;99.90
8858;DHT22;4465;50.904;4.696;2023-04-03T17:08:01;9.10;99.90
8858;DHT22;4465;50.904;4.696;2023-04-03T17:10:27;9.00;99.90
8858;DHT22;4465;50.904;4.696;2023-04-03T17:12:53;9.00;99.90
8858;DHT22;4465;50.904;4.696;2023-04-03T17:15:20;8.90;99.90
8858;DHT22;4465;50.904;4.696;2023-04-03T17:17:48;8.90;99.90
8858;DHT22;4465;50.904;4.696;2023-04-03T17:20:16;8.90;99.90
8858;DHT22;4465;50.904;4.696;2023-04-03T17:22:42;8.90;99.90
8858;DHT22;4465;50.904;4.696;2023-04-03T17:25:10;8.80;99.90
8858;DHT22;4465;50.904;4.696;2023-04-03T17:27:38;8.80;99.90
8858;DHT22;4465;50.904;4.696;2023-04-03T17:30:07;8.80;99.90
8858;DHT22;4465;50.904;4.696;2023-04-03T17:32:33;8.70;99.90
8858;DHT22;4465;50.904;4.696;2023-04-03T17:34:59;8.70;99.90
8858;DHT22;4465;50.904;4.696;2023-04-03T17:37:25;8.70;99.90
8858;DHT22;4465;50.904;4.696;2023-04-03T17:39:50;8.70;99.90
8858;DHT22;4465;50.904;4.696;2023-04-03T17:42:19;8.60;99.90
8858;DHT22;4465;50.904;4.696;2023-04-03T17:44:48;8.50;99.90
8858;DHT22;4465;50.904;4.696;2023-04-03T17:47:16;8.50;99.90
8858;DHT22;4465;50.904;4.696;2023-04-03T17:49:44;8.40;99.90
8858;DHT22;4465;50.904;4.696;2023-04-03T17:52:10;8.40;99.90
8858;DHT22;4465;50.904;4.696;2023-04-03T17:54:36;8.40;99.90
8858;DHT22;4465;50.904;4.696;2023-04-03T17:57:01;8.30;99.90
8858;DHT22;4465;50.904;4.696;2023-04-03T17:59:29;8.20;99.90
8858;DHT22;4465;50.904;4.696;2023-04-03T18:01:54;8.20;99.90
8858;DHT22;4465;50.904;4.696;2023-04-03T18:04:21;8.20;99.90
8858;DHT22;4465;50.904;4.696;2023-04-03T18:06:47;8.10;99.90
8858;DHT22;4465;50.904;4.696;2023-04-03T18:09:18;8.10;99.90
8858;DHT22;4465;50.904;4.696;2023-04-03T18:11:45;8.10;99.90
8858;DHT22;4465;50.904;4.696;2023-04-03T18:14:15;8.00;99.90
8858;DHT22;4465;50.904;4.696;2023-04-03T18:16:42;7.90;99.90
8858;DHT22;4465;50.904;4.696;2023-04-03T18:19:10;7.90;99.90
8858;DHT22;4465;50.904;4.696;2023-04-03T18:21:37;7.80;99.90
8858;DHT22;4465;50.904;4.696;2023-04-03T18:24:03;7.80;99.90